createdAt,value
2018-11-10T00:00:06.696Z,9.11
2018-11-10T00:01:06.689Z,9.13
2018-11-10T00:02:06.683Z,9.14
2018-11-10T00:03:06.676Z,9.25
2018-11-10T00:04:06.689Z,9.32
2018-11-10T00:05:06.663Z,9.32
2018-11-10T00:06:06.660Z,9.21
2018-11-10T00:07:06.652Z,9.22
2018-11-10T00:08:06.703Z,9.23
2018-11-10T00:09:06.642Z,9.31
2018-11-10T00:10:06.631Z,9.18
2018-11-10T00:11:06.625Z,9.34
2018-11-10T00:12:06.620Z,9.41
2018-11-10T00:13:06.614Z,9.41
2018-11-10T00:14:06.607Z,9.40
2018-11-10T00:15:06.600Z,9.46
2018-11-10T00:16:06.597Z,9.44
2018-11-10T00:17:06.587Z,9.43
2018-11-10T00:18:06.579Z,9.43
2018-11-10T00:19:06.574Z,9.46
2018-11-10T00:20:06.566Z,9.55
2018-11-10T00:21:06.560Z,9.54
2018-11-10T00:22:06.554Z,9.51
2018-11-10T00:23:06.547Z,9.61
2018-11-10T00:24:06.542Z,9.51
2018-11-10T00:25:06.535Z,9.56
2018-11-10T00:26:06.529Z,9.51
2018-11-10T00:27:06.522Z,9.62
2018-11-10T00:28:06.516Z,9.54
2018-11-10T00:29:06.509Z,9.48
2018-11-10T00:30:06.503Z,9.54
2018-11-10T00:31:06.497Z,9.58
2018-11-10T00:32:06.492Z,9.51
2018-11-10T00:33:06.484Z,9.55
2018-11-10T00:34:06.484Z,9.43
2018-11-10T00:35:06.471Z,9.43
2018-11-10T00:36:06.465Z,9.44
2018-11-10T00:37:06.462Z,9.51
2018-11-10T00:38:06.453Z,9.41
2018-11-10T00:39:06.446Z,9.43
2018-11-10T00:40:06.441Z,9.40
2018-11-10T00:41:06.435Z,9.41
2018-11-10T00:42:06.428Z,9.47
2018-11-10T00:43:06.421Z,9.44
2018-11-10T00:44:06.417Z,9.41
2018-11-10T00:45:06.409Z,9.55
2018-11-10T00:46:06.403Z,9.50
2018-11-10T00:47:06.396Z,9.41
2018-11-10T00:48:06.390Z,9.34
2018-11-10T00:49:06.384Z,9.32
2018-11-10T00:50:06.379Z,9.47
2018-11-10T00:51:06.371Z,9.34
2018-11-10T00:52:06.365Z,9.43
2018-11-10T00:53:06.361Z,9.50
2018-11-10T00:54:06.356Z,9.36
2018-11-10T00:55:06.350Z,9.41
2018-11-10T00:56:06.341Z,9.48
2018-11-10T00:57:06.334Z,9.40
2018-11-10T00:58:06.328Z,9.55
2018-11-10T00:59:06.325Z,9.54
2018-11-10T01:00:06.317Z,9.55
2018-11-10T01:01:06.311Z,9.55
2018-11-10T01:02:06.301Z,9.58
2018-11-10T01:03:06.295Z,9.48
2018-11-10T01:04:06.294Z,9.51
2018-11-10T01:05:06.285Z,9.48
2018-11-10T01:06:06.277Z,9.48
2018-11-10T01:07:06.276Z,9.41
2018-11-10T01:08:06.266Z,9.54
2018-11-10T01:09:06.259Z,9.41
2018-11-10T01:10:06.277Z,9.51
2018-11-10T01:11:06.247Z,9.43
2018-11-10T01:12:06.248Z,9.44
2018-11-10T01:13:06.235Z,9.56
2018-11-10T01:14:06.230Z,9.54
2018-11-10T01:15:06.222Z,9.43
2018-11-10T01:16:06.217Z,9.56
2018-11-10T01:17:06.209Z,9.59
2018-11-10T01:18:06.204Z,9.55
2018-11-10T01:19:06.197Z,9.62
2018-11-10T01:20:06.192Z,9.55
2018-11-10T01:21:06.185Z,9.64
2018-11-10T01:22:06.179Z,9.62
2018-11-10T01:23:06.173Z,9.54
2018-11-10T01:24:06.171Z,9.59
2018-11-10T01:25:06.160Z,9.62
2018-11-10T01:26:06.155Z,9.61
2018-11-10T01:27:06.148Z,9.62
2018-11-10T01:28:06.144Z,9.65
2018-11-10T01:29:06.140Z,9.65
2018-11-10T01:30:06.132Z,9.66
2018-11-10T01:31:06.125Z,9.76
2018-11-10T01:32:06.118Z,9.72
2018-11-10T01:33:06.110Z,9.74
2018-11-10T01:34:06.105Z,9.74
2018-11-10T01:35:06.099Z,9.66
2018-11-10T01:36:06.096Z,9.69
2018-11-10T01:37:06.086Z,9.66
2018-11-10T01:38:06.097Z,9.69
2018-11-10T01:39:06.077Z,9.68
2018-11-10T01:40:06.071Z,9.68
2018-11-10T01:41:06.062Z,9.61
2018-11-10T01:42:06.055Z,9.76
2018-11-10T01:43:06.049Z,9.72
2018-11-10T01:44:06.044Z,9.66
2018-11-10T01:45:06.036Z,9.69
2018-11-10T01:46:06.031Z,9.72
2018-11-10T01:47:06.026Z,9.69
2018-11-10T01:48:06.019Z,9.68
2018-11-10T01:49:06.012Z,9.69
2018-11-10T01:50:06.008Z,9.64
2018-11-10T01:51:06.001Z,9.80
2018-11-10T01:52:05.995Z,9.72
2018-11-10T01:53:05.987Z,9.66
2018-11-10T01:54:05.981Z,9.65
2018-11-10T01:55:05.974Z,9.73
2018-11-10T01:56:05.969Z,9.68
2018-11-10T01:57:05.963Z,9.73
2018-11-10T01:58:05.955Z,9.77
2018-11-10T01:59:05.950Z,9.74
2018-11-10T02:00:05.944Z,9.82
2018-11-10T02:01:05.937Z,9.76
2018-11-10T02:02:05.934Z,9.74
2018-11-10T02:03:05.927Z,9.79
2018-11-10T02:04:05.924Z,9.77
2018-11-10T02:05:05.914Z,9.83
2018-11-10T02:06:05.910Z,9.80
2018-11-10T02:07:05.903Z,9.84
2018-11-10T02:08:05.896Z,9.87
2018-11-10T02:09:05.888Z,9.87
2018-11-10T02:10:05.883Z,9.97
2018-11-10T02:11:05.882Z,9.89
2018-11-10T02:12:05.879Z,9.95
2018-11-10T02:13:05.869Z,9.87
2018-11-10T02:14:05.859Z,10.01
2018-11-10T02:15:05.855Z,9.83
2018-11-10T02:16:05.846Z,9.92
2018-11-10T02:17:05.843Z,9.80
2018-11-10T02:18:05.838Z,9.84
2018-11-10T02:19:05.829Z,9.89
2018-11-10T02:20:05.824Z,9.84
2018-11-10T02:21:05.816Z,9.98
2018-11-10T02:22:05.811Z,9.98
2018-11-10T02:23:05.805Z,9.92
2018-11-10T02:24:05.799Z,10.04
2018-11-10T02:25:05.793Z,9.97
2018-11-10T02:26:05.787Z,10.01
2018-11-10T02:27:05.782Z,9.97
2018-11-10T02:28:05.775Z,10.02
2018-11-10T02:29:05.770Z,10.07
2018-11-10T02:30:05.762Z,9.98
2018-11-10T02:31:05.758Z,9.99
2018-11-10T02:32:05.751Z,9.97
2018-11-10T02:33:05.744Z,9.99
2018-11-10T02:34:05.740Z,10.05
2018-11-10T02:35:05.732Z,9.99
2018-11-10T02:36:05.728Z,9.99
2018-11-10T02:37:05.720Z,9.99
2018-11-10T02:38:05.714Z,10.04
2018-11-10T02:39:05.710Z,10.04
2018-11-10T02:40:05.703Z,10.02
2018-11-10T02:41:05.696Z,10.05
2018-11-10T02:42:05.694Z,10.05
2018-11-10T02:43:05.685Z,10.16
2018-11-10T02:44:05.676Z,10.16
2018-11-10T02:45:05.672Z,10.12
2018-11-10T02:46:05.666Z,10.13
2018-11-10T02:47:05.661Z,10.16
2018-11-10T02:48:05.654Z,10.16
2018-11-10T02:49:05.647Z,10.12
2018-11-10T02:50:05.642Z,10.12
2018-11-10T02:51:05.636Z,10.13
2018-11-10T02:52:05.629Z,10.05
2018-11-10T02:53:05.624Z,10.04
2018-11-10T02:54:05.618Z,10.15
2018-11-10T02:55:05.612Z,10.12
2018-11-10T02:56:05.608Z,10.15
2018-11-10T02:57:05.601Z,10.17
2018-11-10T02:58:05.593Z,10.22
2018-11-10T02:59:05.589Z,10.28
2018-11-10T03:00:05.583Z,10.22
2018-11-10T03:01:05.577Z,10.28
2018-11-10T03:02:05.571Z,10.25
2018-11-10T03:03:05.564Z,10.33
2018-11-10T03:04:05.559Z,10.30
2018-11-10T03:05:05.552Z,10.25
2018-11-10T03:06:05.546Z,10.33
2018-11-10T03:07:05.542Z,10.33
2018-11-10T03:08:05.535Z,10.31
2018-11-10T03:09:05.527Z,10.31
2018-11-10T03:10:05.522Z,10.34
2018-11-10T03:11:05.516Z,10.33
2018-11-10T03:12:05.512Z,10.34
2018-11-10T03:13:05.504Z,10.42
2018-11-10T03:14:05.499Z,10.33
2018-11-10T03:15:05.504Z,10.44
2018-11-10T03:16:05.488Z,10.44
2018-11-10T03:17:05.481Z,10.46
2018-11-10T03:18:05.475Z,10.49
2018-11-10T03:19:05.470Z,10.49
2018-11-10T03:20:05.465Z,10.44
2018-11-10T03:21:05.458Z,10.37
2018-11-10T03:22:05.453Z,10.38
2018-11-10T03:23:05.446Z,10.44
2018-11-10T03:24:05.441Z,10.35
2018-11-10T03:25:05.435Z,10.42
2018-11-10T03:26:05.428Z,10.46
2018-11-10T03:27:05.423Z,10.48
2018-11-10T03:28:05.417Z,10.51
2018-11-10T03:29:05.410Z,10.51
2018-11-10T03:30:05.405Z,10.56
2018-11-10T03:31:05.405Z,10.60
2018-11-10T03:32:05.396Z,10.57
2018-11-10T03:33:05.389Z,10.63
2018-11-10T03:34:05.380Z,10.64
2018-11-10T03:35:05.375Z,10.67
2018-11-10T03:36:05.370Z,10.67
2018-11-10T03:37:05.363Z,10.61
2018-11-10T03:38:05.358Z,10.57
2018-11-10T03:39:05.353Z,10.56
2018-11-10T03:40:05.349Z,10.63
2018-11-10T03:41:05.343Z,10.60
2018-11-10T03:42:05.337Z,10.61
2018-11-10T03:43:05.332Z,10.63
2018-11-10T03:44:05.323Z,10.72
2018-11-10T03:45:05.318Z,10.67
2018-11-10T03:46:05.313Z,10.72
2018-11-10T03:47:05.306Z,10.71
2018-11-10T03:48:05.305Z,10.72
2018-11-10T03:49:05.296Z,10.64
2018-11-10T03:50:05.290Z,10.74
2018-11-10T03:51:05.287Z,10.68
2018-11-10T03:52:05.281Z,10.75
2018-11-10T03:53:05.271Z,10.74
2018-11-10T03:54:05.271Z,10.74
2018-11-10T03:55:05.264Z,10.79
2018-11-10T03:56:05.255Z,10.86
2018-11-10T03:57:05.249Z,10.92
2018-11-10T03:58:05.247Z,10.89
2018-11-10T03:59:05.239Z,10.93
2018-11-10T04:00:05.234Z,11.05
2018-11-10T04:01:05.226Z,11.12
2018-11-10T04:02:05.224Z,11.12
2018-11-10T04:03:05.217Z,11.11
2018-11-10T04:04:05.211Z,11.12
2018-11-10T04:05:05.203Z,11.11
2018-11-10T04:06:05.198Z,11.14
2018-11-10T04:07:05.193Z,11.11
2018-11-10T04:08:05.188Z,11.12
2018-11-10T04:09:05.181Z,11.07
2018-11-10T04:10:05.177Z,11.17
2018-11-10T04:11:05.169Z,11.18
2018-11-10T04:12:05.165Z,11.12
2018-11-10T04:13:05.159Z,11.23
2018-11-10T04:14:05.153Z,11.29
2018-11-10T04:15:05.147Z,11.25
2018-11-10T04:16:05.142Z,11.30
2018-11-10T04:17:05.135Z,11.29
2018-11-10T04:18:05.130Z,11.32
2018-11-10T04:19:05.124Z,11.43
2018-11-10T04:20:05.119Z,11.30
2018-11-10T04:21:05.115Z,11.33
2018-11-10T04:22:05.108Z,11.30
2018-11-10T04:23:05.102Z,11.35
2018-11-10T04:24:05.098Z,11.32
2018-11-10T04:25:05.092Z,11.41
2018-11-10T04:26:05.085Z,11.40
2018-11-10T04:27:05.081Z,11.40
2018-11-10T04:28:05.076Z,11.37
2018-11-10T04:29:05.068Z,11.41
2018-11-10T04:31:05.060Z,11.44
2018-11-10T04:32:05.053Z,11.40
2018-11-10T04:33:05.048Z,11.44
2018-11-10T04:34:05.042Z,11.35
2018-11-10T04:35:05.036Z,11.32
2018-11-10T04:36:05.032Z,11.30
2018-11-10T04:37:05.028Z,11.37
2018-11-10T04:38:05.019Z,11.32
2018-11-10T04:39:05.013Z,11.37
2018-11-10T04:40:05.011Z,11.32
2018-11-10T04:41:05.005Z,11.32
2018-11-10T04:42:04.997Z,11.43
2018-11-10T04:43:04.992Z,11.30
2018-11-10T04:44:04.986Z,11.27
2018-11-10T04:45:04.979Z,11.27
2018-11-10T04:46:04.975Z,11.33
2018-11-10T04:47:04.968Z,11.29
2018-11-10T04:48:04.964Z,11.26
2018-11-10T04:49:04.957Z,11.25
2018-11-10T04:50:04.953Z,11.26
2018-11-10T04:51:04.946Z,11.25
2018-11-10T04:52:04.942Z,11.29
2018-11-10T04:53:04.934Z,11.22
2018-11-10T04:54:04.929Z,11.15
2018-11-10T04:55:04.924Z,11.18
2018-11-10T04:56:04.918Z,11.10
2018-11-10T04:57:04.911Z,11.22
2018-11-10T04:58:04.909Z,11.33
2018-11-10T04:59:04.902Z,11.26
2018-11-10T05:00:04.897Z,11.19
2018-11-10T05:01:04.890Z,11.19
2018-11-10T05:02:04.884Z,11.18
2018-11-10T05:03:04.879Z,11.19
2018-11-10T05:04:04.874Z,11.17
2018-11-10T05:05:04.866Z,11.19
2018-11-10T05:06:04.862Z,11.18
2018-11-10T05:07:04.857Z,11.07
2018-11-10T05:08:04.852Z,11.14
2018-11-10T05:09:04.846Z,11.22
2018-11-10T05:10:04.840Z,11.10
2018-11-10T05:11:04.836Z,11.30
2018-11-10T05:12:04.830Z,11.30
2018-11-10T05:13:04.823Z,11.19
2018-11-10T05:14:04.819Z,11.27
2018-11-10T05:15:04.811Z,11.27
2018-11-10T05:16:04.806Z,11.25
2018-11-10T05:17:04.800Z,11.32
2018-11-10T05:18:04.795Z,11.35
2018-11-10T05:19:04.791Z,11.32
2018-11-10T05:20:04.791Z,11.32
2018-11-10T05:21:04.780Z,11.25
2018-11-10T05:22:04.773Z,11.22
2018-11-10T05:23:04.767Z,11.29
2018-11-10T05:24:04.762Z,11.29
2018-11-10T05:25:04.760Z,11.27
2018-11-10T05:26:04.751Z,11.19
2018-11-10T05:27:04.746Z,11.22
2018-11-10T05:28:04.740Z,11.18
2018-11-10T05:29:04.734Z,11.29
2018-11-10T05:30:04.734Z,11.30
2018-11-10T05:31:04.756Z,11.30
2018-11-10T05:32:04.718Z,11.30
2018-11-10T05:33:04.711Z,11.37
2018-11-10T05:34:04.707Z,11.33
2018-11-10T05:35:04.701Z,11.40
2018-11-10T05:36:04.695Z,11.35
2018-11-10T05:37:04.689Z,11.43
2018-11-10T05:38:04.683Z,11.43
2018-11-10T05:39:04.683Z,11.40
2018-11-10T05:40:04.673Z,11.37
2018-11-10T05:41:04.668Z,11.44
2018-11-10T05:42:04.662Z,11.45
2018-11-10T05:43:04.656Z,11.59
2018-11-10T05:44:04.651Z,11.59
2018-11-10T05:45:04.644Z,11.62
2018-11-10T05:46:04.639Z,11.60
2018-11-10T05:47:04.633Z,11.50
2018-11-10T05:48:04.628Z,11.45
2018-11-10T05:49:04.622Z,11.40
2018-11-10T05:50:04.617Z,11.37
2018-11-10T05:51:04.612Z,11.41
2018-11-10T05:52:04.605Z,11.37
2018-11-10T05:53:04.601Z,11.47
2018-11-10T05:54:04.596Z,11.43
2018-11-10T05:55:04.590Z,11.41
2018-11-10T05:56:04.584Z,11.43
2018-11-10T05:57:04.643Z,11.37
2018-11-10T05:58:04.572Z,11.41
2018-11-10T05:59:04.569Z,11.36
2018-11-10T06:00:04.562Z,11.41
2018-11-10T06:01:04.556Z,11.40
2018-11-10T06:02:04.550Z,11.40
2018-11-10T06:03:04.588Z,11.44
2018-11-10T06:04:04.542Z,11.47
2018-11-10T06:05:04.534Z,11.43
2018-11-10T06:06:04.528Z,11.50
2018-11-10T06:07:04.523Z,11.40
2018-11-10T06:08:04.523Z,11.43
2018-11-10T06:09:04.523Z,11.43
2018-11-10T06:10:04.669Z,11.33
2018-11-10T06:11:04.501Z,11.50
2018-11-10T06:12:04.496Z,11.48
2018-11-10T06:13:04.490Z,11.47
2018-11-10T06:14:04.486Z,11.62
2018-11-10T06:15:04.482Z,11.57
2018-11-10T06:16:04.563Z,11.55
2018-11-10T06:17:04.469Z,11.63
2018-11-10T06:18:04.463Z,11.62
2018-11-10T06:19:04.459Z,11.54
2018-11-10T06:20:04.453Z,11.59
2018-11-10T06:21:04.449Z,11.65
2018-11-10T06:22:04.444Z,11.69
2018-11-10T06:23:04.439Z,11.69
2018-11-10T06:24:04.432Z,11.70
2018-11-10T06:25:04.426Z,11.81
2018-11-10T06:26:04.498Z,11.80
2018-11-10T06:27:04.416Z,11.80
2018-11-10T06:28:04.410Z,11.73
2018-11-10T06:29:04.405Z,11.83
2018-11-10T06:30:04.399Z,11.94
2018-11-10T06:31:04.394Z,11.81
2018-11-10T06:32:04.389Z,11.88
2018-11-10T06:33:04.385Z,11.88
2018-11-10T06:34:04.379Z,11.90
2018-11-10T06:35:04.373Z,11.81
2018-11-10T06:36:04.367Z,11.94
2018-11-10T06:37:04.362Z,11.97
2018-11-10T06:38:04.356Z,11.91
2018-11-10T06:39:04.350Z,11.97
2018-11-10T06:40:04.345Z,11.87
2018-11-10T06:41:04.340Z,11.88
2018-11-10T06:42:04.333Z,11.97
2018-11-10T06:43:04.330Z,12.04
2018-11-10T06:44:04.324Z,12.07
2018-11-10T06:45:04.317Z,12.04
2018-11-10T06:46:04.311Z,12.15
2018-11-10T06:47:04.353Z,12.18
2018-11-10T06:48:04.299Z,12.13
2018-11-10T06:49:04.292Z,12.13
2018-11-10T06:50:04.292Z,12.17
2018-11-10T06:51:04.283Z,12.10
2018-11-10T06:52:04.277Z,12.13
2018-11-10T06:53:04.446Z,12.04
2018-11-10T06:54:04.266Z,12.09
2018-11-10T06:55:04.259Z,12.03
2018-11-10T06:56:04.256Z,12.03
2018-11-10T06:57:04.248Z,12.07
2018-11-10T06:58:04.248Z,12.18
2018-11-10T06:59:04.237Z,12.10
2018-11-10T07:00:04.233Z,12.20
2018-11-10T07:01:04.225Z,12.18
2018-11-10T07:02:04.220Z,12.10
2018-11-10T07:03:04.212Z,12.09
2018-11-10T07:04:04.208Z,12.04
2018-11-10T07:05:04.201Z,12.07
2018-11-10T07:06:04.220Z,11.97
2018-11-10T07:07:04.190Z,11.99
2018-11-10T07:08:04.185Z,11.97
2018-11-10T07:09:04.178Z,12.06
2018-11-10T07:10:04.173Z,11.94
2018-11-10T07:11:04.167Z,11.94
2018-11-10T07:12:04.161Z,11.91
2018-11-10T07:13:04.154Z,11.90
2018-11-10T07:14:04.149Z,11.88
2018-11-10T07:15:04.145Z,11.83
2018-11-10T07:16:04.137Z,11.87
2018-11-10T07:17:04.133Z,11.84
2018-11-10T07:18:04.156Z,11.80
2018-11-10T07:19:04.118Z,11.78
2018-11-10T07:20:04.113Z,11.73
2018-11-10T07:21:04.108Z,11.77
2018-11-10T07:22:04.102Z,11.83
2018-11-10T07:23:04.095Z,11.77
2018-11-10T07:24:04.090Z,11.86
2018-11-10T07:25:04.134Z,11.84
2018-11-10T07:26:04.078Z,11.84
2018-11-10T07:27:04.070Z,11.90
2018-11-10T07:28:04.067Z,11.81
2018-11-10T07:29:04.059Z,11.88
2018-11-10T07:30:04.053Z,11.78
2018-11-10T07:31:04.048Z,11.86
2018-11-10T07:32:04.157Z,11.80
2018-11-10T07:33:04.036Z,11.80
2018-11-10T07:34:04.030Z,11.87
2018-11-10T07:35:04.025Z,11.86
2018-11-10T07:36:04.018Z,11.88
2018-11-10T07:37:04.012Z,11.86
2018-11-10T07:38:04.006Z,11.90
2018-11-10T07:39:04.001Z,11.84
2018-11-10T07:40:03.996Z,11.86
2018-11-10T07:41:03.989Z,11.94
2018-11-10T07:42:03.983Z,11.90
2018-11-10T07:43:03.985Z,11.94
2018-11-10T07:44:03.973Z,11.87
2018-11-10T07:45:03.965Z,11.84
2018-11-10T07:46:03.959Z,11.94
2018-11-10T07:47:03.954Z,11.88
2018-11-10T07:48:03.951Z,11.84
2018-11-10T07:49:03.943Z,11.86
2018-11-10T07:50:03.937Z,11.91
2018-11-10T07:51:03.998Z,11.95
2018-11-10T07:52:03.926Z,11.95
2018-11-10T07:53:03.919Z,11.91
2018-11-10T07:54:03.915Z,11.95
2018-11-10T07:55:03.909Z,11.99
2018-11-10T07:56:03.990Z,11.95
2018-11-10T07:57:03.896Z,12.04
2018-11-10T07:58:03.895Z,11.95
2018-11-10T07:59:03.888Z,11.99
2018-11-10T08:00:03.881Z,11.99
2018-11-10T08:01:03.874Z,12.04
2018-11-10T08:02:03.868Z,12.07
2018-11-10T08:03:03.863Z,12.15
2018-11-10T08:04:03.868Z,12.07
2018-11-10T08:05:03.852Z,12.10
2018-11-10T08:06:03.845Z,12.12
2018-11-10T08:07:03.840Z,12.17
2018-11-10T08:08:03.836Z,12.20
2018-11-10T08:09:03.828Z,12.20
2018-11-10T08:10:03.824Z,12.18
2018-11-10T08:11:03.817Z,12.18
2018-11-10T08:12:03.861Z,12.20
2018-11-10T08:13:03.812Z,12.20
2018-11-10T08:14:03.803Z,12.25
2018-11-10T08:15:03.794Z,12.22
2018-11-10T08:16:03.790Z,12.21
2018-11-10T08:17:03.782Z,12.22
2018-11-10T08:18:03.778Z,12.22
2018-11-10T08:19:03.772Z,12.21
2018-11-10T08:20:03.767Z,12.17
2018-11-10T08:21:03.761Z,12.21
2018-11-10T08:22:03.755Z,12.18
2018-11-10T08:23:03.750Z,12.21
2018-11-10T08:24:03.746Z,12.15
2018-11-10T08:25:03.824Z,12.24
2018-11-10T08:26:03.734Z,12.17
2018-11-10T08:27:03.732Z,12.20
2018-11-10T08:28:03.722Z,12.28
2018-11-10T08:29:03.720Z,12.24
2018-11-10T08:30:03.712Z,12.25
2018-11-10T08:31:03.779Z,12.32
2018-11-10T08:32:03.701Z,12.36
2018-11-10T08:33:03.695Z,12.35
2018-11-10T08:34:03.691Z,12.45
2018-11-10T08:35:03.684Z,12.37
2018-11-10T08:36:03.679Z,12.43
2018-11-10T08:37:03.673Z,12.42
2018-11-10T08:38:03.668Z,12.35
2018-11-10T08:39:03.724Z,12.40
2018-11-10T08:40:03.659Z,12.49
2018-11-10T08:41:03.652Z,12.50
2018-11-10T08:42:03.646Z,12.45
2018-11-10T08:43:03.642Z,12.49
2018-11-10T08:44:03.637Z,12.50
2018-11-10T08:45:03.630Z,12.50
2018-11-10T08:46:03.626Z,12.60
2018-11-10T08:47:03.621Z,12.57
2018-11-10T08:48:03.614Z,12.64
2018-11-10T08:49:03.611Z,12.60
2018-11-10T08:50:03.609Z,12.68
2018-11-10T08:51:03.601Z,12.61
2018-11-10T08:52:03.594Z,12.58
2018-11-10T08:53:03.588Z,12.61
2018-11-10T08:54:03.582Z,12.67
2018-11-10T08:55:03.578Z,12.68
2018-11-10T08:56:03.571Z,12.72
2018-11-10T08:57:03.567Z,12.82
2018-11-10T08:58:03.570Z,12.78
2018-11-10T08:59:03.597Z,12.80
2018-11-10T09:00:03.550Z,12.86
2018-11-10T09:01:03.544Z,12.83
2018-11-10T09:02:03.540Z,12.79
2018-11-10T09:03:03.537Z,12.90
2018-11-10T09:04:03.529Z,12.91
2018-11-10T09:05:03.526Z,12.86
2018-11-10T09:06:03.519Z,13.00
2018-11-10T09:07:03.513Z,12.98
2018-11-10T09:08:03.511Z,12.95
2018-11-10T09:09:03.503Z,13.00
2018-11-10T09:10:03.500Z,12.94
2018-11-10T09:11:03.492Z,13.01
2018-11-10T09:12:03.488Z,13.11
2018-11-10T09:13:03.488Z,13.12
2018-11-10T09:14:03.478Z,13.16
2018-11-10T09:15:03.482Z,13.35
2018-11-10T09:16:03.468Z,13.31
2018-11-10T09:17:03.461Z,13.35
2018-11-10T09:18:03.459Z,13.41
2018-11-10T09:19:03.450Z,13.44
2018-11-10T09:20:03.448Z,13.50
2018-11-10T09:21:03.471Z,13.47
2018-11-10T09:22:03.436Z,13.38
2018-11-10T09:23:03.432Z,13.47
2018-11-10T09:24:03.426Z,13.50
2018-11-10T09:25:03.421Z,13.44
2018-11-10T09:26:03.416Z,13.42
2018-11-10T09:27:03.410Z,13.47
2018-11-10T09:28:03.405Z,13.46
2018-11-10T09:29:03.401Z,13.47
2018-11-10T09:30:03.397Z,13.46
2018-11-10T09:31:03.481Z,13.52
2018-11-10T09:32:03.385Z,13.60
2018-11-10T09:33:03.379Z,13.54
2018-11-10T09:34:03.375Z,13.72
2018-11-10T09:35:03.369Z,13.70
2018-11-10T09:36:03.365Z,13.74
2018-11-10T09:37:03.360Z,13.75
2018-11-10T09:38:03.355Z,13.78
2018-11-10T09:39:03.351Z,13.79
2018-11-10T09:40:03.350Z,13.79
2018-11-10T09:41:03.340Z,13.87
2018-11-10T09:42:03.371Z,13.85
2018-11-10T09:43:03.330Z,13.90
2018-11-10T09:44:03.327Z,13.90
2018-11-10T09:45:03.320Z,13.87
2018-11-10T09:46:03.316Z,13.87
2018-11-10T09:47:03.310Z,13.95
2018-11-10T09:48:03.306Z,13.93
2018-11-10T09:49:03.299Z,13.85
2018-11-10T09:50:03.297Z,13.86
2018-11-10T09:51:03.291Z,13.85
2018-11-10T09:52:03.285Z,13.85
2018-11-10T09:53:03.281Z,13.93
2018-11-10T09:54:03.279Z,13.93
2018-11-10T09:55:03.271Z,13.87
2018-11-10T09:56:03.267Z,13.93
2018-11-10T09:57:03.260Z,13.95
2018-11-10T09:58:03.257Z,14.00
2018-11-10T09:59:03.255Z,14.07
2018-11-10T10:00:03.245Z,13.96
2018-11-10T10:01:03.290Z,14.00
2018-11-10T10:02:03.666Z,14.05
2018-11-10T10:03:03.230Z,14.05
2018-11-10T10:04:03.227Z,14.00
2018-11-10T10:05:03.220Z,14.03
2018-11-10T10:06:03.216Z,14.05
2018-11-10T10:07:03.212Z,14.08
2018-11-10T10:08:03.206Z,13.97
2018-11-10T10:09:03.320Z,14.05
2018-11-10T10:10:03.198Z,14.04
2018-11-10T10:11:03.193Z,14.04
2018-11-10T10:12:03.189Z,13.99
2018-11-10T10:13:03.182Z,14.07
2018-11-10T10:14:03.178Z,14.05
2018-11-10T10:15:03.177Z,14.12
2018-11-10T10:16:03.248Z,14.11
2018-11-10T10:17:03.170Z,14.05
2018-11-10T10:18:03.162Z,14.00
2018-11-10T10:19:03.155Z,14.08
2018-11-10T10:20:03.152Z,14.14
2018-11-10T10:21:03.144Z,14.03
2018-11-10T10:22:03.143Z,14.12
2018-11-10T10:23:03.135Z,14.03
2018-11-10T10:24:03.130Z,14.04
2018-11-10T10:25:03.129Z,14.03
2018-11-10T10:26:03.121Z,14.17
2018-11-10T10:27:03.117Z,14.14
2018-11-10T10:28:03.113Z,14.04
2018-11-10T10:29:03.142Z,14.08
2018-11-10T10:30:03.103Z,14.08
2018-11-10T10:31:03.098Z,14.04
2018-11-10T10:32:03.094Z,14.05
2018-11-10T10:33:03.089Z,14.10
2018-11-10T10:34:03.117Z,14.03
2018-11-10T10:35:03.188Z,14.12
2018-11-10T10:36:03.076Z,14.07
2018-11-10T10:37:03.071Z,14.10
2018-11-10T10:38:03.069Z,14.15
2018-11-10T10:39:03.062Z,14.10
2018-11-10T10:40:03.065Z,14.14
2018-11-10T10:41:03.054Z,14.12
2018-11-10T10:42:03.050Z,14.20
2018-11-10T10:43:03.094Z,14.11
2018-11-10T10:44:03.040Z,14.20
2018-11-10T10:45:03.035Z,14.18
2018-11-10T10:46:03.031Z,14.10
2018-11-10T10:47:03.026Z,14.15
2018-11-10T10:48:03.020Z,14.12
2018-11-10T10:49:03.038Z,14.03
2018-11-10T10:50:03.013Z,14.00
2018-11-10T10:51:03.008Z,14.03
2018-11-10T10:52:03.003Z,14.17
2018-11-10T10:53:02.998Z,14.08
2018-11-10T10:54:02.993Z,14.10
2018-11-10T10:55:02.990Z,14.11
2018-11-10T10:56:03.042Z,14.04
2018-11-10T10:57:03.076Z,14.11
2018-11-10T10:58:02.974Z,14.10
2018-11-10T10:59:02.971Z,14.04
2018-11-10T11:00:02.965Z,14.08
2018-11-10T11:01:02.960Z,14.18
2018-11-10T11:02:02.956Z,14.17
2018-11-10T11:03:03.119Z,14.12
2018-11-10T11:04:02.947Z,14.11
2018-11-10T11:05:02.942Z,14.14
2018-11-10T11:06:02.939Z,14.11
2018-11-10T11:07:02.938Z,14.25
2018-11-10T11:08:02.930Z,14.25
2018-11-10T11:09:03.028Z,14.23
2018-11-10T11:10:02.920Z,14.20
2018-11-10T11:11:02.918Z,14.22
2018-11-10T11:12:02.913Z,14.30
2018-11-10T11:13:02.907Z,14.26
2018-11-10T11:14:02.903Z,14.30
2018-11-10T11:15:02.938Z,14.25
2018-11-10T11:16:02.895Z,14.29
2018-11-10T11:17:02.890Z,14.28
2018-11-10T11:18:02.886Z,14.29
2018-11-10T11:19:02.884Z,14.30
2018-11-10T11:20:02.879Z,14.29
2018-11-10T11:21:02.873Z,14.35
2018-11-10T11:22:02.961Z,14.43
2018-11-10T11:23:02.865Z,14.47
2018-11-10T11:24:02.862Z,14.50
2018-11-10T11:25:02.861Z,14.60
2018-11-10T11:26:02.853Z,14.60
2018-11-10T11:27:02.851Z,14.66
2018-11-10T11:28:02.848Z,14.65
2018-11-10T11:29:02.894Z,14.63
2018-11-10T11:30:02.849Z,14.68
2018-11-10T11:31:02.842Z,14.68
2018-11-10T11:32:02.834Z,14.59
2018-11-10T11:33:02.829Z,14.68
2018-11-10T11:34:02.824Z,14.63
2018-11-10T11:35:02.828Z,14.62
2018-11-10T11:36:02.819Z,14.69
2018-11-10T11:37:02.815Z,14.59
2018-11-10T11:38:02.817Z,14.59
2018-11-10T11:39:02.807Z,14.58
2018-11-10T11:40:02.806Z,14.55
2018-11-10T11:41:02.847Z,14.55
2018-11-10T11:42:02.797Z,14.62
2018-11-10T11:43:02.793Z,14.60
2018-11-10T11:44:02.789Z,14.58
2018-11-10T11:45:02.784Z,14.53
2018-11-10T11:46:02.780Z,14.51
2018-11-10T11:47:02.777Z,14.59
2018-11-10T11:48:02.773Z,14.55
2018-11-10T11:49:02.769Z,14.54
2018-11-10T11:50:02.766Z,14.50
2018-11-10T11:51:02.761Z,14.54
2018-11-10T11:52:02.757Z,14.54
2018-11-10T11:53:02.753Z,14.55
2018-11-10T11:54:02.748Z,14.48
2018-11-10T11:55:02.744Z,14.53
2018-11-10T11:56:02.742Z,14.62
2018-11-10T11:57:02.735Z,14.53
2018-11-10T11:58:02.926Z,14.58
2018-11-10T11:59:02.732Z,14.65
2018-11-10T12:00:02.726Z,14.63
2018-11-10T12:01:02.720Z,14.81
2018-11-10T12:02:02.779Z,14.69
2018-11-10T12:03:02.713Z,14.70
2018-11-10T12:04:02.710Z,14.79
2018-11-10T12:05:02.706Z,14.81
2018-11-10T12:06:02.702Z,14.82
2018-11-10T12:07:02.698Z,14.81
2018-11-10T12:08:02.697Z,14.73
2018-11-10T12:09:02.692Z,14.77
2018-11-10T12:10:02.688Z,14.77
2018-11-10T12:11:02.683Z,14.77
2018-11-10T12:12:02.682Z,14.72
2018-11-10T12:13:02.676Z,14.79
2018-11-10T12:14:02.673Z,14.78
2018-11-10T12:15:02.707Z,14.81
2018-11-10T12:16:02.667Z,14.84
2018-11-10T12:17:02.762Z,14.78
2018-11-10T12:18:02.659Z,14.81
2018-11-10T12:19:02.658Z,14.79
2018-11-10T12:20:02.651Z,14.84
2018-11-10T12:21:02.746Z,14.78
2018-11-10T12:22:02.764Z,14.81
2018-11-10T12:23:02.641Z,14.81
2018-11-10T12:24:02.638Z,14.84
2018-11-10T12:25:02.635Z,14.81
2018-11-10T12:26:02.629Z,14.82
2018-11-10T12:27:02.627Z,14.85
2018-11-10T12:28:02.627Z,14.69
2018-11-10T12:29:02.622Z,14.66
2018-11-10T12:30:02.615Z,14.68
2018-11-10T12:31:02.611Z,14.51
2018-11-10T12:32:02.716Z,14.58
2018-11-10T12:33:02.603Z,14.53
2018-11-10T12:34:02.599Z,14.55
2018-11-10T12:35:02.595Z,14.54
2018-11-10T12:36:02.591Z,14.48
2018-11-10T12:37:02.587Z,14.43
2018-11-10T12:38:02.583Z,14.40
2018-11-10T12:39:02.579Z,14.33
2018-11-10T12:40:02.579Z,14.40
2018-11-10T12:41:02.569Z,14.30
2018-11-10T12:42:02.566Z,14.26
2018-11-10T12:43:02.562Z,14.22
2018-11-10T12:44:02.559Z,14.15
2018-11-10T12:45:02.558Z,14.23
2018-11-10T12:46:02.548Z,14.26
2018-11-10T12:47:02.544Z,14.12
2018-11-10T12:48:02.540Z,14.08
2018-11-10T12:49:02.605Z,14.08
2018-11-10T12:50:02.530Z,14.10
2018-11-10T12:51:02.525Z,14.07
2018-11-10T12:52:02.521Z,14.11
2018-11-10T12:53:02.515Z,14.12
2018-11-10T12:54:02.512Z,14.04
2018-11-10T12:55:02.518Z,14.10
2018-11-10T12:56:02.500Z,14.12
2018-11-10T12:57:02.495Z,13.97
2018-11-10T12:58:02.519Z,13.92